createdAt,value
2023-02-05T00:00:39.415Z,9.45
2023-02-05T00:03:08.232Z,8.35
2023-02-05T00:05:36.921Z,9.63
2023-02-05T00:08:05.801Z,8.30
2023-02-05T00:10:34.620Z,9.07
2023-02-05T00:13:03.582Z,8.57
2023-02-05T00:15:32.456Z,10.18
2023-02-05T00:18:03.296Z,9.32
2023-02-05T00:20:32.890Z,8.55
2023-02-05T00:23:02.451Z,8.00
2023-02-05T00:25:33.544Z,7.60
2023-02-05T00:28:02.574Z,9.15
2023-02-05T00:30:32.349Z,10.20
2023-02-05T00:33:02.433Z,8.80
2023-02-05T00:35:31.044Z,8.07
2023-02-05T00:38:00.710Z,7.60
2023-02-05T00:40:29.231Z,7.95
2023-02-05T00:42:57.808Z,8.40
2023-02-05T00:45:26.549Z,10.20
2023-02-05T00:47:55.132Z,8.63
2023-02-05T00:50:25.320Z,8.25
2023-02-05T00:52:53.890Z,10.45
2023-02-05T00:55:23.634Z,8.43
2023-02-05T00:57:52.429Z,9.43
2023-02-05T01:00:21.861Z,10.02
2023-02-05T01:02:50.566Z,10.43
2023-02-05T01:05:19.666Z,12.20
2023-02-05T01:07:49.832Z,10.75
2023-02-05T01:10:18.399Z,11.50
2023-02-05T01:12:47.083Z,9.85
2023-02-05T01:15:15.738Z,10.98
2023-02-05T01:17:44.507Z,10.25
2023-02-05T01:20:14.499Z,10.18
2023-02-05T01:22:44.704Z,10.98
2023-02-05T01:25:14.922Z,10.20
2023-02-05T01:27:44.699Z,9.25
2023-02-05T01:30:14.083Z,9.82
2023-02-05T01:32:42.661Z,10.57
2023-02-05T01:35:11.592Z,10.52
2023-02-05T01:37:40.483Z,8.93
2023-02-05T01:40:09.652Z,9.57
2023-02-05T01:42:39.736Z,10.18
2023-02-05T01:45:54.166Z,9.90
2023-02-05T01:48:26.510Z,10.20
2023-02-05T01:51:01.620Z,10.27
2023-02-05T01:53:33.239Z,9.75
2023-02-05T01:56:04.724Z,10.13
2023-02-05T01:58:42.793Z,9.93
2023-02-05T02:01:11.380Z,11.35
2023-02-05T02:03:42.252Z,10.13
2023-02-05T02:06:11.016Z,9.05
2023-02-05T02:08:39.561Z,9.05
2023-02-05T02:11:10.661Z,9.02
2023-02-05T02:13:43.164Z,8.85
2023-02-05T02:16:13.017Z,9.52
2023-02-05T02:18:42.239Z,9.45
2023-02-05T02:21:42.770Z,9.02
2023-02-05T02:24:44.800Z,9.13
2023-02-05T02:27:38.232Z,9.50
2023-02-05T02:30:15.896Z,8.43
2023-02-05T02:32:50.169Z,9.23
2023-02-05T02:35:26.848Z,8.55
2023-02-05T02:38:03.495Z,8.95
2023-02-05T02:40:37.732Z,8.80
2023-02-05T02:43:12.151Z,9.30
2023-02-05T02:45:49.437Z,8.30
2023-02-05T02:48:22.188Z,10.27
2023-02-05T02:50:55.725Z,9.50
2023-02-05T02:53:28.295Z,9.85
2023-02-05T02:55:58.635Z,9.25
2023-02-05T02:58:33.053Z,8.10
2023-02-05T03:01:06.235Z,9.73
2023-02-05T03:03:39.907Z,9.05
2023-02-05T03:06:11.368Z,8.77
2023-02-05T03:08:47.367Z,9.43
2023-02-05T03:11:17.699Z,9.77
2023-02-05T03:13:48.042Z,8.82
2023-02-05T03:16:20.433Z,8.68
2023-02-05T03:18:50.531Z,8.90
2023-02-05T03:21:24.368Z,9.02
2023-02-05T03:23:53.269Z,9.15
2023-02-05T03:26:30.324Z,8.82
2023-02-05T03:29:02.246Z,8.52
2023-02-05T03:31:42.285Z,9.23
2023-02-05T03:34:21.521Z,9.23
2023-02-05T03:37:02.296Z,9.15
2023-02-05T03:39:43.878Z,8.80
2023-02-05T03:42:23.071Z,8.65
2023-02-05T03:45:29.982Z,8.88
2023-02-05T03:48:14.858Z,8.93
2023-02-05T03:50:51.700Z,8.30
2023-02-05T03:53:27.890Z,9.70
2023-02-05T03:56:05.566Z,8.43
2023-02-05T03:58:41.687Z,8.68
2023-02-05T04:01:11.941Z,9.52
2023-02-05T04:03:42.230Z,8.32
2023-02-05T04:06:10.799Z,8.50
2023-02-05T04:08:40.450Z,8.93
2023-02-05T04:11:09.908Z,8.27
2023-02-05T04:13:39.808Z,8.48
2023-02-05T04:16:08.445Z,8.65
2023-02-05T04:18:39.446Z,8.73
2023-02-05T04:21:09.530Z,9.13
2023-02-05T04:23:38.081Z,8.82
2023-02-05T04:26:06.788Z,9.40
2023-02-05T04:28:36.640Z,8.38
2023-02-05T04:31:09.894Z,8.10
2023-02-05T04:33:40.996Z,8.43
2023-02-05T04:36:11.609Z,8.18
2023-02-05T04:38:41.886Z,8.05
2023-02-05T04:41:10.625Z,7.97
2023-02-05T04:43:41.274Z,8.27
2023-02-05T04:46:13.714Z,7.68
2023-02-05T04:48:42.242Z,7.80
2023-02-05T04:51:15.495Z,7.97
2023-02-05T04:53:44.196Z,8.45
2023-02-05T04:56:15.215Z,8.20
2023-02-05T04:58:44.824Z,7.90
2023-02-05T05:01:15.419Z,8.80
2023-02-05T05:03:44.442Z,7.80
2023-02-05T05:06:14.924Z,8.68
2023-02-05T05:08:44.173Z,8.45
2023-02-05T05:11:14.848Z,8.13
2023-02-05T05:13:44.344Z,8.50
2023-02-05T05:16:15.630Z,8.95
2023-02-05T05:18:45.865Z,8.18
2023-02-05T05:21:17.855Z,8.13
2023-02-05T05:23:47.525Z,8.45
2023-02-05T05:26:16.515Z,8.82
2023-02-05T05:28:45.181Z,8.57
2023-02-05T05:31:17.717Z,8.75
2023-02-05T05:33:46.733Z,8.70
2023-02-05T05:36:18.276Z,8.90
2023-02-05T05:38:46.988Z,8.85
2023-02-05T05:41:38.144Z,8.10
2023-02-05T05:44:07.876Z,7.90
2023-02-05T05:46:37.850Z,8.30
2023-02-05T05:49:08.435Z,9.25
2023-02-05T05:51:38.660Z,9.02
2023-02-05T05:54:07.455Z,8.70
2023-02-05T05:56:36.643Z,7.75
2023-02-05T05:59:07.471Z,8.13
2023-02-05T06:01:37.264Z,8.52
2023-02-05T06:04:05.783Z,8.77
2023-02-05T06:06:34.553Z,8.95
2023-02-05T06:09:14.980Z,9.40
2023-02-05T06:11:43.651Z,8.88
2023-02-05T06:14:12.282Z,8.65
2023-02-05T06:16:42.083Z,8.70
2023-02-05T06:19:10.670Z,8.75
2023-02-05T06:21:44.090Z,8.68
2023-02-05T06:24:12.847Z,9.13
2023-02-05T06:26:48.940Z,8.43
2023-02-05T06:29:17.702Z,8.75
2023-02-05T06:31:47.500Z,7.75
2023-02-05T06:34:16.220Z,9.10
2023-02-05T06:36:44.838Z,8.95
2023-02-05T06:39:13.432Z,8.93
2023-02-05T06:41:42.240Z,8.80
2023-02-05T06:44:12.621Z,9.20
2023-02-05T06:46:41.449Z,9.75
2023-02-05T06:49:10.159Z,9.52
2023-02-05T06:51:39.829Z,9.23
2023-02-05T06:54:08.415Z,9.02
2023-02-05T06:56:36.983Z,9.18
2023-02-05T06:59:06.531Z,10.18
2023-02-05T07:01:36.630Z,8.82
2023-02-05T07:04:05.421Z,8.90
2023-02-05T07:06:36.020Z,9.82
2023-02-05T07:09:06.724Z,9.55
2023-02-05T07:11:35.853Z,9.35
2023-02-05T07:14:05.704Z,9.50
2023-02-05T07:16:35.823Z,10.20
2023-02-05T07:19:04.518Z,9.90
2023-02-05T07:21:34.108Z,11.05
2023-02-05T07:24:03.442Z,9.27
2023-02-05T07:26:33.155Z,9.65
2023-02-05T07:29:02.114Z,9.75
2023-02-05T07:31:30.791Z,9.30
2023-02-05T07:34:00.870Z,10.80
2023-02-05T07:36:29.700Z,10.18
2023-02-05T07:38:59.875Z,9.52
2023-02-05T07:41:28.547Z,9.32
2023-02-05T07:43:57.220Z,9.88
2023-02-05T07:46:25.764Z,9.73
2023-02-05T07:48:56.607Z,9.88
2023-02-05T07:51:26.894Z,9.80
2023-02-05T07:53:55.513Z,10.18
2023-02-05T07:56:26.131Z,10.48
2023-02-05T07:58:55.771Z,10.25
2023-02-05T08:01:25.416Z,9.65
2023-02-05T08:03:54.168Z,9.60
2023-02-05T08:06:22.753Z,9.52
2023-02-05T08:08:52.825Z,10.07
2023-02-05T08:11:21.534Z,10.77
2023-02-05T08:13:50.223Z,9.48
2023-02-05T08:16:19.315Z,10.52
2023-02-05T08:18:50.810Z,9.98
2023-02-05T08:21:22.109Z,10.38
2023-02-05T08:23:57.893Z,11.02
2023-02-05T08:26:26.531Z,10.10
2023-02-05T08:28:56.867Z,10.65
2023-02-05T08:31:28.252Z,11.05
2023-02-05T08:33:58.135Z,11.63
2023-02-05T08:36:27.128Z,12.23
2023-02-05T08:38:58.329Z,11.43
2023-02-05T08:41:27.245Z,9.85
2023-02-05T08:43:55.896Z,10.13
2023-02-05T08:46:31.608Z,10.63
2023-02-05T08:49:05.976Z,10.00
2023-02-05T08:51:36.016Z,10.45
2023-02-05T08:54:09.682Z,10.13
2023-02-05T08:57:12.106Z,9.65
2023-02-05T08:59:40.925Z,10.40
2023-02-05T09:02:16.357Z,10.35
2023-02-05T09:04:45.059Z,10.13
2023-02-05T09:07:13.661Z,9.82
2023-02-05T09:09:43.878Z,11.02
2023-02-05T09:12:12.516Z,10.43
2023-02-05T09:14:41.270Z,10.88
2023-02-05T09:17:14.779Z,11.55
2023-02-05T09:19:43.852Z,11.98
2023-02-05T09:22:12.434Z,12.10
2023-02-05T09:24:42.653Z,10.45
2023-02-05T09:27:14.448Z,11.63
2023-02-05T09:29:43.819Z,9.15
2023-02-05T09:32:12.857Z,9.32
2023-02-05T09:34:41.561Z,9.40
2023-02-05T09:37:10.159Z,8.18
2023-02-05T09:42:38.503Z,9.27
2023-02-05T09:45:19.792Z,8.50
2023-02-05T09:47:56.051Z,7.15
2023-02-05T09:50:30.237Z,9.18
2023-02-05T09:53:06.055Z,5.95
2023-02-05T09:55:37.824Z,6.85
2023-02-05T09:58:13.470Z,6.05
2023-02-05T10:00:48.247Z,5.70
2023-02-05T10:03:26.041Z,7.35
2023-02-05T10:06:11.791Z,6.60
2023-02-05T10:08:48.937Z,6.20
2023-02-05T10:11:25.067Z,6.57
2023-02-05T10:14:06.901Z,6.90
2023-02-05T10:16:50.455Z,6.57
2023-02-05T10:19:40.578Z,7.47
2023-02-05T10:22:17.288Z,7.90
2023-02-05T10:25:12.941Z,6.88
2023-02-05T10:27:55.562Z,6.95
2023-02-05T10:30:39.752Z,7.25
2023-02-05T10:33:18.686Z,6.95
2023-02-05T10:35:52.829Z,6.88
2023-02-05T10:38:25.192Z,6.88
2023-02-05T10:41:00.490Z,8.15
2023-02-05T10:43:33.045Z,8.10
2023-02-05T10:46:03.402Z,6.10
2023-02-05T10:48:42.880Z,5.22
2023-02-05T10:51:15.459Z,5.95
2023-02-05T10:53:45.227Z,5.85
2023-02-05T10:56:19.037Z,5.95
2023-02-05T10:58:53.669Z,6.20
2023-02-05T11:01:26.702Z,6.05
2023-02-05T11:04:01.487Z,6.38
2023-02-05T11:06:34.210Z,7.22
2023-02-05T11:09:02.982Z,6.45
2023-02-05T11:11:33.668Z,6.20
2023-02-05T11:14:06.406Z,6.70
2023-02-05T11:16:43.646Z,7.32
2023-02-05T11:19:23.559Z,7.07
2023-02-05T11:21:55.507Z,6.50
2023-02-05T11:24:27.359Z,7.30
2023-02-05T11:27:29.260Z,7.35
2023-02-05T11:30:00.227Z,8.10
2023-02-05T11:32:37.701Z,7.05
2023-02-05T11:35:23.561Z,7.90
2023-02-05T11:38:01.820Z,8.05
2023-02-05T11:40:33.342Z,7.57
2023-02-05T11:43:06.423Z,7.97
2023-02-05T11:45:38.965Z,8.02
2023-02-05T11:48:27.452Z,8.13
2023-02-05T11:50:56.436Z,7.93
2023-02-05T11:53:25.578Z,7.25
2023-02-05T11:55:57.309Z,8.38
2023-02-05T11:58:36.700Z,7.60
2023-02-05T12:01:22.007Z,7.53
2023-02-05T12:04:00.662Z,7.28
2023-02-05T12:06:36.989Z,7.25
2023-02-05T12:09:07.333Z,7.57
2023-02-05T12:12:07.121Z,7.65
2023-02-05T12:14:43.993Z,6.05
2023-02-05T12:17:34.127Z,6.78
2023-02-05T12:20:14.179Z,5.78
2023-02-05T12:23:04.817Z,6.80
2023-02-05T12:25:44.360Z,6.45
2023-02-05T12:28:27.038Z,5.82
2023-02-05T12:31:09.114Z,5.03
2023-02-05T12:34:10.174Z,5.78
2023-02-05T12:37:03.084Z,5.18
2023-02-05T12:39:42.668Z,5.07
2023-02-05T12:42:23.076Z,5.45
2023-02-05T12:45:06.077Z,5.32
2023-02-05T12:47:59.825Z,5.70
2023-02-05T12:50:51.238Z,4.93
2023-02-05T12:53:38.713Z,4.85
2023-02-05T12:56:34.427Z,5.32
2023-02-05T12:59:11.342Z,3.97
2023-02-05T13:01:44.660Z,4.53
2023-02-05T13:04:24.699Z,4.30
2023-02-05T13:07:00.132Z,4.38
2023-02-05T13:09:43.125Z,4.63
2023-02-05T13:12:16.287Z,4.10
2023-02-05T13:14:54.724Z,3.85
2023-02-05T13:17:26.878Z,4.18
2023-02-05T13:20:00.426Z,4.05
2023-02-05T13:22:54.602Z,4.10
2023-02-05T13:25:48.957Z,3.97
2023-02-05T13:28:43.223Z,5.22
2023-02-05T13:31:22.766Z,3.72
2023-02-05T13:33:53.285Z,4.05
2023-02-05T13:36:50.326Z,3.90
2023-02-05T13:39:52.998Z,3.75
2023-02-05T13:42:50.212Z,3.70
2023-02-05T13:45:39.558Z,4.00
2023-02-05T13:48:26.839Z,3.55
2023-02-05T13:51:14.996Z,4.18
2023-02-05T13:53:58.638Z,3.55
2023-02-05T13:56:43.478Z,4.70
2023-02-05T13:59:18.991Z,3.78
2023-02-05T14:01:54.241Z,3.20
2023-02-05T14:04:26.968Z,3.30
2023-02-05T14:07:02.032Z,3.20
2023-02-05T14:09:36.931Z,3.58
2023-02-05T14:12:09.526Z,3.42
2023-02-05T14:14:41.314Z,2.97
2023-02-05T14:17:49.497Z,3.85
2023-02-05T14:20:36.962Z,3.35
2023-02-05T14:23:15.970Z,3.30
2023-02-05T14:26:11.802Z,3.30
2023-02-05T14:28:49.763Z,4.07
2023-02-05T14:31:47.808Z,3.05
2023-02-05T14:34:56.514Z,3.08
2023-02-05T14:37:34.066Z,3.47
2023-02-05T14:40:22.935Z,3.13
2023-02-05T14:42:57.128Z,3.53
2023-02-05T14:45:31.133Z,3.28
2023-02-05T14:48:02.615Z,3.03
2023-02-05T14:50:31.852Z,2.33
2023-02-05T14:53:03.325Z,2.45
2023-02-05T14:55:40.017Z,3.28
2023-02-05T14:58:23.183Z,3.45
2023-02-05T15:00:53.417Z,2.35
2023-02-05T15:03:38.944Z,2.63
2023-02-05T15:06:15.402Z,2.22
2023-02-05T15:08:50.669Z,2.67
2023-02-05T15:11:28.312Z,2.83
2023-02-05T15:14:35.591Z,2.20
2023-02-05T15:17:41.536Z,2.55
2023-02-05T15:20:25.491Z,2.42
2023-02-05T15:23:04.551Z,2.40
2023-02-05T15:25:41.138Z,2.80
2023-02-05T15:28:20.004Z,2.85
2023-02-05T15:30:56.061Z,3.97
2023-02-05T15:33:34.563Z,3.03
2023-02-05T15:36:12.087Z,2.85
2023-02-05T15:38:48.045Z,3.15
2023-02-05T15:41:17.704Z,3.30
2023-02-05T15:44:00.679Z,2.75
2023-02-05T15:46:31.331Z,2.38
2023-02-05T15:49:01.367Z,2.33
2023-02-05T15:51:34.884Z,2.47
2023-02-05T15:54:05.857Z,2.22
2023-02-05T15:56:38.228Z,4.03
2023-02-05T15:59:13.995Z,3.17
2023-02-05T16:01:47.014Z,3.38
2023-02-05T16:04:20.094Z,3.58
2023-02-05T16:06:50.828Z,3.53
2023-02-05T16:09:21.257Z,3.67
2023-02-05T16:11:50.668Z,3.15
2023-02-05T16:14:21.101Z,3.30
2023-02-05T16:17:01.156Z,3.00
2023-02-05T16:19:36.547Z,2.55
2023-02-05T16:22:30.606Z,2.88
2023-02-05T16:25:03.714Z,2.80
2023-02-05T16:27:39.666Z,3.30
2023-02-05T16:30:17.605Z,2.88
2023-02-05T16:32:46.448Z,2.47
2023-02-05T16:35:24.072Z,4.00
2023-02-05T16:37:54.331Z,3.10
2023-02-05T16:40:36.114Z,2.95
2023-02-05T16:43:28.803Z,3.92
2023-02-05T16:46:26.408Z,3.58
2023-02-05T16:48:57.620Z,3.40
2023-02-05T16:51:37.200Z,2.78
2023-02-05T16:54:29.959Z,3.42
2023-02-05T16:57:03.605Z,3.55
2023-02-05T16:59:35.610Z,3.92
2023-02-05T17:02:04.805Z,5.65
2023-02-05T17:04:37.155Z,5.18
2023-02-05T17:07:17.205Z,7.95
2023-02-05T17:09:47.428Z,8.40
2023-02-05T17:12:40.311Z,6.32
2023-02-05T17:15:28.479Z,5.55
2023-02-05T17:17:59.733Z,3.95
2023-02-05T17:20:30.072Z,3.92
2023-02-05T17:23:15.655Z,4.05
2023-02-05T17:25:54.802Z,4.50
2023-02-05T17:28:26.386Z,5.10
2023-02-05T17:30:58.000Z,4.60
2023-02-05T17:33:29.019Z,5.20
2023-02-05T17:35:57.701Z,3.60
2023-02-05T17:38:26.104Z,4.60
2023-02-05T17:41:16.357Z,5.05
2023-02-05T17:43:45.026Z,4.13
2023-02-05T17:46:15.454Z,4.45
2023-02-05T17:48:44.836Z,4.22
2023-02-05T17:51:20.669Z,3.88
2023-02-05T17:53:49.689Z,5.95
2023-02-05T17:56:21.547Z,4.07
2023-02-05T17:58:51.944Z,5.20
2023-02-05T18:01:25.244Z,5.13
2023-02-05T18:03:54.150Z,5.97
2023-02-05T18:06:22.777Z,5.80
2023-02-05T18:08:51.291Z,4.70
2023-02-05T18:11:21.455Z,5.30
2023-02-05T18:13:49.988Z,4.25
2023-02-05T18:16:19.077Z,4.03
2023-02-05T18:18:47.865Z,3.85
2023-02-05T18:21:16.936Z,4.85
2023-02-05T18:23:45.521Z,4.90
2023-02-05T18:26:14.275Z,5.20
2023-02-05T18:28:45.710Z,6.78
2023-02-05T18:31:15.723Z,7.03
2023-02-05T18:33:44.694Z,7.50
2023-02-05T18:36:14.666Z,7.30
2023-02-05T18:38:44.390Z,9.10
2023-02-05T18:41:14.898Z,6.78
2023-02-05T18:43:46.299Z,7.78
2023-02-05T18:46:17.772Z,6.45
2023-02-05T18:48:46.549Z,8.88
2023-02-05T18:51:18.154Z,19.40
2023-02-05T18:53:47.889Z,15.52
2023-02-05T18:56:18.893Z,13.27
2023-02-05T18:58:54.324Z,10.27
2023-02-05T19:01:23.177Z,10.23
2023-02-05T19:03:55.324Z,23.92
2023-02-05T19:06:24.186Z,25.02
2023-02-05T19:08:53.047Z,25.70
2023-02-05T19:11:24.311Z,33.80
2023-02-05T19:13:59.433Z,46.75
2023-02-05T19:16:29.871Z,36.80
2023-02-05T19:18:59.241Z,36.45
2023-02-05T19:21:30.982Z,34.38
2023-02-05T19:24:05.665Z,14.85
2023-02-05T19:26:36.465Z,8.35
2023-02-05T19:29:09.421Z,9.48
2023-02-05T19:31:38.689Z,8.77
2023-02-05T19:34:08.150Z,7.43
2023-02-05T19:36:37.465Z,6.63
2023-02-05T19:39:08.720Z,7.88
2023-02-05T19:41:38.831Z,11.38
2023-02-05T19:44:10.480Z,13.30
2023-02-05T19:46:42.248Z,10.50
2023-02-05T19:49:14.785Z,9.82
2023-02-05T19:51:47.084Z,10.13
2023-02-05T19:54:16.210Z,9.00
2023-02-05T19:56:45.244Z,8.57
2023-02-05T19:59:17.135Z,8.80
2023-02-05T20:01:46.903Z,8.45
2023-02-05T20:04:17.833Z,8.93
2023-02-05T20:06:48.428Z,9.00
2023-02-05T20:09:18.640Z,14.88
2023-02-05T20:11:49.192Z,30.63
2023-02-05T20:14:19.655Z,27.85
2023-02-05T20:16:48.889Z,20.83
2023-02-05T20:19:18.183Z,23.42
2023-02-05T20:21:48.517Z,24.40
2023-02-05T20:24:17.592Z,26.45
2023-02-05T20:26:48.636Z,24.40
2023-02-05T20:29:36.351Z,22.92
2023-02-05T20:32:05.808Z,23.42
2023-02-05T20:34:36.381Z,23.02
2023-02-05T20:37:06.823Z,22.33
2023-02-05T20:39:39.866Z,20.52
2023-02-05T20:42:08.656Z,21.75
2023-02-05T20:44:38.970Z,21.45
2023-02-05T20:47:09.510Z,22.75
2023-02-05T20:49:40.276Z,30.15
2023-02-05T20:52:09.362Z,34.75
2023-02-05T20:54:38.418Z,33.83
2023-02-05T20:57:08.008Z,37.53
2023-02-05T20:59:39.612Z,37.80
2023-02-05T21:02:09.042Z,39.28
2023-02-05T21:04:38.522Z,42.10
2023-02-05T21:07:07.006Z,42.30
2023-02-05T21:09:35.703Z,43.15
2023-02-05T21:12:05.705Z,43.72
2023-02-05T21:14:34.329Z,46.45
2023-02-05T21:17:05.082Z,45.78
2023-02-05T21:19:33.632Z,44.47
2023-02-05T21:22:02.285Z,45.15
2023-02-05T21:24:30.880Z,41.50
2023-02-05T21:26:59.761Z,38.83
2023-02-05T21:29:29.378Z,36.65
2023-02-05T21:31:57.966Z,33.38
2023-02-05T21:34:29.724Z,41.28
2023-02-05T21:36:58.949Z,38.28
2023-02-05T21:39:28.567Z,37.17
2023-02-05T21:41:57.346Z,36.67
2023-02-05T21:44:25.990Z,38.13
2023-02-05T21:46:55.487Z,40.60
2023-02-05T21:49:24.390Z,37.78
2023-02-05T21:51:54.791Z,33.05
2023-02-05T21:54:25.945Z,33.50
2023-02-05T21:56:55.035Z,34.55
2023-02-05T21:59:24.484Z,34.28
2023-02-05T22:01:54.584Z,34.67
2023-02-05T22:04:23.188Z,35.03
2023-02-05T22:06:54.076Z,32.67
2023-02-05T22:09:22.700Z,35.55
2023-02-05T22:11:52.615Z,35.55
2023-02-05T22:14:21.646Z,33.72
2023-02-05T22:16:51.216Z,47.58
2023-02-05T22:19:19.923Z,32.78
2023-02-05T22:21:48.525Z,30.58
2023-02-05T22:24:20.685Z,32.28
2023-02-05T22:26:49.496Z,32.67
2023-02-05T22:29:20.575Z,29.80
2023-02-05T22:31:52.799Z,25.23
2023-02-05T22:34:22.419Z,22.52
2023-02-05T22:36:51.216Z,23.25
2023-02-05T22:39:21.366Z,25.05
2023-02-05T22:41:49.977Z,27.02
2023-02-05T22:44:19.945Z,28.73
2023-02-05T22:46:49.048Z,28.23
2023-02-05T22:49:17.655Z,28.65
2023-02-05T22:51:46.814Z,30.58
2023-02-05T22:54:17.326Z,32.70
2023-02-05T22:56:47.498Z,34.33
2023-02-05T22:59:17.251Z,34.58
2023-02-05T23:01:45.806Z,33.75
2023-02-05T23:04:14.257Z,34.33
2023-02-05T23:06:45.454Z,34.25
2023-02-05T23:09:17.902Z,32.47
2023-02-05T23:11:48.811Z,32.38
2023-02-05T23:14:19.159Z,32.25
2023-02-05T23:16:49.134Z,30.75
2023-02-05T23:19:20.738Z,28.90
2023-02-05T23:21:50.894Z,27.83
2023-02-05T23:24:23.943Z,27.20
2023-02-05T23:26:55.119Z,26.45
2023-02-05T23:29:24.090Z,27.88
2023-02-05T23:31:53.600Z,28.02
2023-02-05T23:34:22.430Z,31.00
2023-02-05T23:36:51.050Z,28.33
2023-02-05T23:39:19.676Z,27.67
2023-02-05T23:41:48.683Z,25.98
2023-02-05T23:44:20.315Z,27.48
2023-02-05T23:46:50.107Z,27.83
2023-02-05T23:49:21.548Z,28.48
2023-02-05T23:51:50.314Z,28.88
2023-02-05T23:54:19.074Z,28.33
2023-02-05T23:56:48.219Z,31.95
2023-02-05T23:59:18.813Z,31.73
